Time;durP1;ratioP1;P1;durP2;ratioP2;P2;SDS_P1;SDS_P2;PMS_P1;PMS_P2;Temp;Humidity;BMP_temperature;BMP_pressure;BME280_temperature;BME280_humidity;BME280_pressure;Samples;Min_cycle;Max_cycle;Signal;HPM_P1;HPM_P2
2022/11/20 00:01:38;;;;;;;;;;;;;;;26.21;53.87;96223.84;598422;236;67139;-68
2022/11/20 00:04:06;;;;;;;;;;;;;;;26.21;55.24;96206.89;598458;236;64959;-68
2022/11/20 00:06:33;;;;;;;;;;;;;;;26.19;53.96;96239.55;598524;236;65070;-68
2022/11/20 00:09:01;;;;;;;;;;;;;;;26.20;57.14;96229.56;598442;237;67121;-68
2022/11/20 00:11:29;;;;;;;;;;;;;;;26.17;54.81;96239.08;598509;236;67029;-68
2022/11/20 00:13:58;;;;;;;;;;;;;;;26.18;54.05;96254.11;598439;236;65091;-68
2022/11/20 00:16:27;;;;;;;;;;;;;;;26.17;55.48;96231.00;598496;237;66182;-63
2022/11/20 00:18:55;;;;;;;;;;;;;;;26.17;55.18;96249.06;598511;236;64930;-67
2022/11/20 00:21:26;;;;;;;;;;;;;;;26.16;55.78;96229.40;598472;236;65052;-67
2022/11/20 00:23:55;;;;;;;;;;;;;;;26.16;55.08;96250.94;598482;236;64937;-68
2022/11/20 00:26:23;;;;;;;;;;;;;;;26.15;55.02;96265.53;598460;236;67102;-67
2022/11/20 00:28:52;;;;;;;;;;;;;;;26.13;54.05;96265.05;598467;236;65145;-67
2022/11/20 00:31:20;;;;;;;;;;;;;;;26.11;54.01;96235.77;598543;236;67107;-67
2022/11/20 00:33:47;;;;;;;;;;;;;;;26.10;55.38;96236.08;604484;233;67074;-67
2022/11/20 00:36:16;;;;;;;;;;;;;;;26.10;54.97;96220.71;605139;234;65040;-67
2022/11/20 00:38:44;;;;;;;;;;;;;;;26.10;54.32;96233.39;605123;234;65055;-67
2022/11/20 00:41:13;;;;;;;;;;;;;;;26.09;54.97;96245.28;605156;234;67125;-67
2022/11/20 00:43:40;;;;;;;;;;;;;;;26.09;53.97;96239.90;605185;234;65226;-67
2022/11/20 00:46:09;;;;;;;;;;;;;;;26.09;55.28;96229.91;605220;234;67250;-67
2022/11/20 00:48:37;;;;;;;;;;;;;;;26.07;54.05;96217.88;605169;234;66896;-63
2022/11/20 00:51:04;;;;;;;;;;;;;;;26.06;54.15;96230.56;612035;232;63961;-63
2022/11/20 00:53:32;;;;;;;;;;;;;;;26.06;54.53;96216.31;605068;234;64993;-63
2022/11/20 00:56:01;;;;;;;;;;;;;;;26.05;54.51;96210.12;609564;233;66063;-63
2022/11/20 00:58:32;;;;;;;;;;;;;;;26.04;54.84;96235.47;605219;234;65211;-63
2022/11/20 01:01:07;;;;;;;;;;;;;;;26.02;54.34;96216.15;609535;233;67257;-64
2022/11/20 01:03:36;;;;;;;;;;;;;;;26.03;55.00;96204.29;604911;234;67337;-63
2022/11/20 01:06:05;;;;;;;;;;;;;;;26.01;55.10;96205.72;609532;233;64886;-63
2022/11/20 01:08:34;;;;;;;;;;;;;;;26.01;54.78;96201.12;605159;234;67252;-68
2022/11/20 01:11:02;;;;;;;;;;;;;;;26.00;55.75;96218.40;609546;233;67081;-68
2022/11/20 01:13:40;;;;;;;;;;;;;;;25.99;55.86;96203.34;605201;234;65093;-64
2022/11/20 01:16:09;;;;;;;;;;;;;;;25.99;55.16;96197.17;609555;233;64976;-64
2022/11/20 01:18:36;;;;;;;;;;;;;;;25.99;56.46;96218.70;605122;232;65095;-64
2022/11/20 01:21:05;;;;;;;;;;;;;;;25.97;55.67;96208.25;609565;233;63094;-64
2022/11/20 01:23:37;;;;;;;;;;;;;;;25.97;55.82;96199.39;605075;233;64711;-64
2022/11/20 01:26:06;;;;;;;;;;;;;;;25.96;55.08;96211.28;609573;231;64855;-64
2022/11/20 01:28:34;;;;;;;;;;;;;;;25.95;54.36;96225.86;605110;234;62854;-68
2022/11/20 01:31:01;;;;;;;;;;;;;;;25.95;57.09;96226.65;609462;233;65412;-68
2022/11/20 01:33:29;;;;;;;;;;;;;;;25.95;55.50;96188.17;605831;234;64903;-68
2022/11/20 01:35:58;;;;;;;;;;;;;;;25.94;55.26;96205.42;608242;233;62772;-69
2022/11/20 01:38:25;;;;;;;;;;;;;;;25.92;55.64;96205.76;608096;233;65187;-68
2022/11/20 01:40:56;;;;;;;;;;;;;;;25.90;55.35;96195.30;608294;233;66841;-68
2022/11/20 01:43:24;;;;;;;;;;;;;;;25.91;56.62;96214.92;608237;233;65061;-68
2022/11/20 01:46:03;;;;;;;;;;;;;;;25.90;57.35;96216.05;608243;233;67199;-69
2022/11/20 01:48:38;;;;;;;;;;;;;;;25.89;55.80;96212.58;608259;233;67061;-62
2022/11/20 01:51:07;;;;;;;;;;;;;;;25.88;57.34;96202.91;608247;233;62524;-63
2022/11/20 01:53:36;;;;;;;;;;;;;;;25.88;56.58;96227.13;608249;233;64873;-67
2022/11/20 01:56:05;;;;;;;;;;;;;;;25.88;56.27;96207.50;608219;233;65104;-64
2022/11/20 01:58:34;;;;;;;;;;;;;;;25.85;55.54;96222.39;608237;233;62930;-63
2022/11/20 02:01:01;;;;;;;;;;;;;;;25.85;55.38;96235.84;608249;233;67177;-63
2022/11/20 02:03:28;;;;;;;;;;;;;;;25.85;56.36;96226.98;608262;233;64890;-64
2022/11/20 02:06:07;;;;;;;;;;;;;;;25.84;57.89;96231.59;608238;233;63114;-63
2022/11/20 02:08:34;;;;;;;;;;;;;;;25.83;55.92;96219.22;608243;233;67184;-63
2022/11/20 02:11:02;;;;;;;;;;;;;;;25.81;54.23;96221.44;608254;233;66808;-63
2022/11/20 02:13:44;;;;;;;;;;;;;;;25.81;54.44;96217.93;608234;233;65062;-63
2022/11/20 02:16:20;;;;;;;;;;;;;;;25.81;55.28;96213.36;608248;233;65034;-62
2022/11/20 02:18:48;;;;;;;;;;;;;;;25.81;56.80;96217.93;608202;233;67384;-63
2022/11/20 02:21:20;;;;;;;;;;;;;;;25.79;55.77;96204.81;608211;233;65258;-63
2022/11/20 02:23:58;;;;;;;;;;;;;;;25.78;55.55;96195.17;608202;233;67259;-64
2022/11/20 02:26:27;;;;;;;;;;;;;;;25.78;55.81;96173.64;608226;233;67132;-63
2022/11/20 02:28:55;;;;;;;;;;;;;;;25.76;56.18;96173.16;608234;233;64984;-62
2022/11/20 02:31:23;;;;;;;;;;;;;;;25.77;57.28;96176.64;608206;233;67218;-62
2022/11/20 02:33:51;;;;;;;;;;;;;;;25.76;56.13;96162.40;608297;233;66968;-62
2022/11/20 02:36:19;;;;;;;;;;;;;;;25.74;54.10;96175.37;608351;233;65211;-63
2022/11/20 02:38:47;;;;;;;;;;;;;;;25.75;55.52;96149.25;608445;233;66886;-63
2022/11/20 02:41:14;;;;;;;;;;;;;;;25.74;55.48;96158.45;608363;233;66944;-63
2022/11/20 02:43:41;;;;;;;;;;;;;;;25.74;55.60;96153.07;608355;233;65143;-63
2022/11/20 02:46:09;;;;;;;;;;;;;;;25.74;55.89;96166.52;608338;233;67523;-63
2022/11/20 02:48:36;;;;;;;;;;;;;;;25.73;56.10;96162.23;608349;233;67101;-63
2022/11/20 02:51:04;;;;;;;;;;;;;;;25.71;55.63;96143.73;608419;233;65111;-63
2022/11/20 02:53:31;;;;;;;;;;;;;;;25.71;56.01;96137.57;608369;233;64937;-63
2022/11/20 02:55:59;;;;;;;;;;;;;;;25.69;57.63;96133.28;608348;233;64840;-63
2022/11/20 02:58:26;;;;;;;;;;;;;;;25.68;55.42;96142.48;608365;233;62922;-63
2022/11/20 03:00:55;;;;;;;;;;;;;;;25.68;54.71;96139.00;608359;233;67662;-63
2022/11/20 03:03:23;;;;;;;;;;;;;;;25.68;55.80;96150.55;608396;233;64355;-63
2022/11/20 03:05:51;;;;;;;;;;;;;;;25.67;55.61;96130.14;608382;233;62930;-63
2022/11/20 03:08:20;;;;;;;;;;;;;;;25.65;55.66;96159.27;608302;233;47153;-63
2022/11/20 03:10:47;;;;;;;;;;;;;;;25.65;55.98;96166.56;608334;233;67030;-63
2022/11/20 03:13:15;;;;;;;;;;;;;;;25.66;56.52;96160.05;608347;233;63211;-62
2022/11/20 03:15:42;;;;;;;;;;;;;;;25.65;56.03;96147.72;608379;233;64895;-63
2022/11/20 03:18:10;;;;;;;;;;;;;;;25.65;56.63;96161.17;608381;233;64926;-63
2022/11/20 03:20:37;;;;;;;;;;;;;;;25.63;54.22;96153.41;608360;233;65056;-68
2022/11/20 03:23:05;;;;;;;;;;;;;;;25.63;55.00;96152.63;608357;233;67232;-68
2022/11/20 03:25:32;;;;;;;;;;;;;;;25.63;54.66;96152.63;608401;233;64305;-67
2022/11/20 03:28:00;;;;;;;;;;;;;;;25.62;55.83;96151.84;608421;233;63057;-67
2022/11/20 03:30:27;;;;;;;;;;;;;;;25.62;57.29;96156.44;608372;233;64848;-67
2022/11/20 03:32:57;;;;;;;;;;;;;;;25.60;53.75;96169.42;608269;233;64954;-67
2022/11/20 03:35:24;;;;;;;;;;;;;;;25.59;56.09;96165.13;608243;233;62929;-68
2022/11/20 03:37:52;;;;;;;;;;;;;;;25.58;55.35;96177.80;608238;233;64654;-68
2022/11/20 03:40:19;;;;;;;;;;;;;;;25.58;56.54;96166.25;608245;233;64651;-68
2022/11/20 03:42:47;;;;;;;;;;;;;;;25.58;58.81;96187.77;608354;233;65001;-68
2022/11/20 03:45:15;;;;;;;;;;;;;;;25.58;58.37;96204.70;608308;233;66906;-68
2022/11/20 03:47:43;;;;;;;;;;;;;;;25.56;55.14;96189.98;608290;233;64908;-68
2022/11/20 03:50:17;;;;;;;;;;;;;;;25.56;58.15;96206.91;608302;233;62947;-68
2022/11/20 03:52:41;;;;;;;;;;;;;;;25.55;55.36;96228.77;608069;233;64540;-68
2022/11/20 03:55:09;;;;;;;;;;;;;;;25.54;57.55;96198.40;608345;233;67093;-68
2022/11/20 03:57:37;;;;;;;;;;;;;;;25.55;56.14;96207.25;608258;233;65146;-68
2022/11/20 04:00:05;;;;;;;;;;;;;;;25.52;56.06;96205.98;608298;233;67372;-68
2022/11/20 04:02:32;;;;;;;;;;;;;;;25.52;56.51;96221.34;608265;233;67070;-68
2022/11/20 04:05:00;;;;;;;;;;;;;;;25.52;54.52;96210.59;608290;233;65035;-68
2022/11/20 04:07:27;;;;;;;;;;;;;;;25.51;56.33;96215.18;608317;233;67355;-68
2022/11/20 04:09:55;;;;;;;;;;;;;;;25.51;57.29;96217.05;608267;233;67057;-68
2022/11/20 04:12:22;;;;;;;;;;;;;;;25.49;56.36;96203.16;608306;233;63098;-68
2022/11/20 04:14:50;;;;;;;;;;;;;;;25.47;54.70;96212.32;608320;233;64953;-68
2022/11/20 04:17:17;;;;;;;;;;;;;;;25.47;57.39;96193.48;608275;233;64901;-68
2022/11/20 04:19:44;;;;;;;;;;;;;;;25.47;58.12;96196.17;608333;233;62977;-68
2022/11/20 04:22:12;;;;;;;;;;;;;;;25.46;57.63;96208.06;608250;233;65039;-68
2022/11/20 04:24:39;;;;;;;;;;;;;;;25.46;56.76;96229.58;608301;233;66855;-68
2022/11/20 04:27:07;;;;;;;;;;;;;;;25.45;55.61;96203.80;608285;233;64936;-68
2022/11/20 04:29:34;;;;;;;;;;;;;;;25.45;58.31;96211.87;608276;233;67226;-68
2022/11/20 04:32:02;;;;;;;;;;;;;;;25.44;56.87;96215.65;608344;233;64924;-64
2022/11/20 04:34:29;;;;;;;;;;;;;;;25.43;56.01;96192.56;608388;233;62886;-63
2022/11/20 04:36:57;;;;;;;;;;;;;;;25.43;57.39;96230.22;608434;233;67168;-63
2022/11/20 04:39:24;;;;;;;;;;;;;;;25.42;57.18;96217.86;608443;233;66756;-68
2022/11/20 04:44:38;;;;;;;;;;;;;;;25.41;55.41;96231.64;608417;233;67311;-68
2022/11/20 04:47:05;;;;;;;;;;;;;;;25.40;56.46;96238.92;608407;233;67305;-68
2022/11/20 04:49:33;;;;;;;;;;;;;;;25.39;57.01;96221.19;608403;233;65017;-68
2022/11/20 04:52:01;;;;;;;;;;;;;;;25.39;58.05;96233.86;608412;233;67272;-68
2022/11/20 04:54:28;;;;;;;;;;;;;;;25.38;58.24;96222.31;608362;233;66948;-63
2022/11/20 04:56:56;;;;;;;;;;;;;;;25.37;56.78;96228.81;608377;233;65120;-63
2022/11/20 04:59:24;;;;;;;;;;;;;;;25.37;57.09;96225.30;608390;233;65918;-63
2022/11/20 05:01:51;;;;;;;;;;;;;;;25.35;57.28;96214.88;608372;233;66980;-63
2022/11/20 05:04:18;;;;;;;;;;;;;;;25.36;57.13;96207.59;608403;233;65114;-63
2022/11/20 05:06:46;;;;;;;;;;;;;;;25.34;58.50;96207.91;608387;233;66887;-63
2022/11/20 05:09:13;;;;;;;;;;;;;;;25.34;54.93;96209.81;608362;233;66939;-63
2022/11/20 05:11:41;;;;;;;;;;;;;;;25.33;58.12;96217.09;608365;233;65151;-63
2022/11/20 05:14:08;;;;;;;;;;;;;;;25.32;58.25;96207.45;608401;233;67444;-63
2022/11/20 05:16:36;;;;;;;;;;;;;;;25.32;56.44;96191.31;608370;233;66995;-63
2022/11/20 05:19:03;;;;;;;;;;;;;;;25.31;55.97;96194.31;608379;233;65081;-63
2022/11/20 05:21:32;;;;;;;;;;;;;;;25.31;54.78;96200.48;608366;233;65022;-63
2022/11/20 05:23:59;;;;;;;;;;;;;;;25.30;56.93;96196.22;608391;233;67017;-63
2022/11/20 05:26:27;;;;;;;;;;;;;;;25.29;57.32;96208.09;608392;233;64919;-63
2022/11/20 05:28:54;;;;;;;;;;;;;;;25.29;57.28;96210.78;608351;233;66530;-63
2022/11/20 05:31:23;;;;;;;;;;;;;;;25.28;57.56;96216.47;608361;233;65125;-63
2022/11/20 05:33:51;;;;;;;;;;;;;;;25.28;55.98;96221.84;608356;233;65062;-68
2022/11/20 05:36:19;;;;;;;;;;;;;;;25.27;57.66;96237.20;608359;233;67215;-63
2022/11/20 05:38:46;;;;;;;;;;;;;;;25.28;58.51;96243.36;608423;233;66918;-63
2022/11/20 05:41:15;;;;;;;;;;;;;;;25.26;55.69;96251.73;608353;233;65005;-63
2022/11/20 05:43:44;;;;;;;;;;;;;;;25.27;56.21;96247.17;608354;233;67160;-63
2022/11/20 05:46:13;;;;;;;;;;;;;;;25.24;57.43;96268.20;608381;233;64812;-63
2022/11/20 05:48:41;;;;;;;;;;;;;;;25.24;57.41;96275.48;608360;233;62940;-63
2022/11/20 05:51:10;;;;;;;;;;;;;;;25.23;56.44;96279.26;608395;233;65076;-63
2022/11/20 05:53:37;;;;;;;;;;;;;;;25.23;56.95;96280.05;608229;233;66775;-63
2022/11/20 05:56:09;;;;;;;;;;;;;;;25.22;58.17;96283.06;608345;233;65052;-63
2022/11/20 05:58:37;;;;;;;;;;;;;;;25.21;58.05;96282.28;608329;233;65024;-63
2022/11/20 06:01:06;;;;;;;;;;;;;;;25.21;57.46;96289.56;608342;233;65247;-63
2022/11/20 06:03:34;;;;;;;;;;;;;;;25.19;58.22;96283.70;608373;233;64905;-63
2022/11/20 06:06:01;;;;;;;;;;;;;;;25.19;59.44;96289.86;607764;233;65098;-63
2022/11/20 06:08:29;;;;;;;;;;;;;;;25.18;58.21;96299.05;608292;233;64916;-63
2022/11/20 06:10:57;;;;;;;;;;;;;;;25.17;57.91;96318.17;608323;233;63106;-63
2022/11/20 06:13:24;;;;;;;;;;;;;;;25.16;57.41;96322.77;607780;233;65033;-63
2022/11/20 06:15:53;;;;;;;;;;;;;;;25.16;57.87;96324.66;608131;233;67781;-63
2022/11/20 06:18:20;;;;;;;;;;;;;;;25.16;58.15;96330.05;608381;233;65165;-63
2022/11/20 06:20:48;;;;;;;;;;;;;;;25.16;57.54;96340.80;601865;233;67042;-63
2022/11/20 06:23:15;;;;;;;;;;;;;;;25.16;57.94;96340.80;608355;233;66978;-63
2022/11/20 06:25:43;;;;;;;;;;;;;;;25.15;57.69;96349.95;608140;233;65052;-63
2022/11/20 06:28:11;;;;;;;;;;;;;;;25.15;58.25;96341.88;608386;233;67428;-63
2022/11/20 06:30:40;;;;;;;;;;;;;;;25.14;57.27;96341.06;608350;233;67080;-68
2022/11/20 06:33:07;;;;;;;;;;;;;;;25.15;58.58;96347.27;607974;233;62605;-68
2022/11/20 06:35:35;;;;;;;;;;;;;;;25.15;58.69;96352.64;608122;233;64968;-70
2022/11/20 06:38:02;;;;;;;;;;;;;;;25.14;57.57;96364.48;608142;233;64918;-69
2022/11/20 06:40:30;;;;;;;;;;;;;;;25.16;56.81;96381.13;608264;233;62894;-67
2022/11/20 06:42:57;;;;;;;;;;;;;;;25.17;57.60;96380.02;608301;233;67186;-67
2022/11/20 06:45:25;;;;;;;;;;;;;;;25.17;58.10;96388.08;607766;233;66830;-67
2022/11/20 06:47:52;;;;;;;;;;;;;;;25.18;58.64;96386.96;608234;233;65183;-68
2022/11/20 06:50:20;;;;;;;;;;;;;;;25.19;58.16;96392.05;608222;233;67172;-67
2022/11/20 06:52:47;;;;;;;;;;;;;;;25.18;58.32;96389.66;608254;233;66961;-67
2022/11/20 06:55:15;;;;;;;;;;;;;;;25.20;57.88;96406.27;608276;233;65034;-67
2022/11/20 06:57:43;;;;;;;;;;;;;;;25.19;57.22;96392.05;608258;233;67395;-68
2022/11/20 07:00:11;;;;;;;;;;;;;;;25.21;57.15;96410.56;607990;233;67094;-69
2022/11/20 07:02:39;;;;;;;;;;;;;;;25.22;57.69;96399.48;608194;233;65064;-68
2022/11/20 07:05:06;;;;;;;;;;;;;;;25.22;57.63;96426.37;608133;233;67244;-68
2022/11/20 07:07:34;;;;;;;;;;;;;;;25.22;57.57;96404.07;608239;233;66805;-68
2022/11/20 07:10:01;;;;;;;;;;;;;;;25.23;58.44;96414.50;608211;233;64989;-67
2022/11/20 07:12:29;;;;;;;;;;;;;;;25.23;55.80;96421.78;608224;233;67247;-67
2022/11/20 07:14:56;;;;;;;;;;;;;;;25.25;58.68;96422.27;608090;233;67420;-66
2022/11/20 07:17:24;;;;;;;;;;;;;;;25.24;58.01;96420.69;608241;233;65014;-66
2022/11/20 07:19:51;;;;;;;;;;;;;;;25.25;57.76;96406.13;608291;233;67193;-66
2022/11/20 07:22:21;;;;;;;;;;;;;;;25.23;56.00;96413.70;608238;233;67032;-66
2022/11/20 07:24:48;;;;;;;;;;;;;;;25.25;57.58;96419.58;608231;233;65208;-68
2022/11/20 07:27:15;;;;;;;;;;;;;;;25.25;56.19;96422.27;608158;233;67225;-66
2022/11/20 07:29:44;;;;;;;;;;;;;;;25.25;56.98;96420.36;608092;233;66772;-67
2022/11/20 07:32:12;;;;;;;;;;;;;;;25.27;56.85;96419.28;608145;233;65065;-67
2022/11/20 07:34:39;;;;;;;;;;;;;;;25.28;56.84;96418.16;608149;233;66782;-68
2022/11/20 07:37:08;;;;;;;;;;;;;;;25.29;54.45;96417.86;608229;233;66813;-68
2022/11/20 07:39:35;;;;;;;;;;;;;;;25.32;57.57;96433.37;608185;233;64875;-67
2022/11/20 07:42:03;;;;;;;;;;;;;;;25.33;57.77;96418.80;608210;231;64902;-67
2022/11/20 07:44:30;;;;;;;;;;;;;;;25.37;59.36;96424.34;608254;233;64592;-67
2022/11/20 07:46:58;;;;;;;;;;;;;;;25.37;57.05;96427.03;607820;233;63018;-67
2022/11/20 07:49:26;;;;;;;;;;;;;;;25.39;54.93;96444.44;608061;233;64628;-67
2022/11/20 07:51:54;;;;;;;;;;;;;;;25.41;58.17;96439.55;608251;233;66658;-67
2022/11/20 07:54:22;;;;;;;;;;;;;;;25.42;58.82;96443.81;608222;233;65200;-67
2022/11/20 07:56:49;;;;;;;;;;;;;;;25.44;57.09;96449.67;608213;233;67187;-67
2022/11/20 07:59:17;;;;;;;;;;;;;;;25.45;58.14;96448.59;608289;233;67065;-67
2022/11/20 08:01:44;;;;;;;;;;;;;;;25.47;57.95;96451.73;608216;232;65093;-67
2022/11/20 08:04:12;;;;;;;;;;;;;;;25.49;57.93;96459.50;608223;233;67177;-67
2022/11/20 08:06:39;;;;;;;;;;;;;;;25.50;56.28;96461.08;608200;233;65642;-67
2022/11/20 08:09:07;;;;;;;;;;;;;;;25.52;56.79;96471.54;608201;233;65019;-62
2022/11/20 08:14:20;;;;;;;;;;;;;;;25.55;56.97;96462.84;608279;233;64918;-64
2022/11/20 08:16:49;;;;;;;;;;;;;;;25.57;56.51;96461.42;608215;233;64934;-64
2022/11/20 08:19:19;;;;;;;;;;;;;;;25.59;55.82;96471.85;608197;233;67270;-64
2022/11/20 08:21:47;;;;;;;;;;;;;;;25.59;58.50;96463.78;608233;231;66639;-62
2022/11/20 08:24:14;;;;;;;;;;;;;;;25.62;55.95;96479.33;608200;233;65150;-63
2022/11/20 08:26:42;;;;;;;;;;;;;;;25.63;56.55;96470.14;608245;233;67232;-62
2022/11/20 08:29:11;;;;;;;;;;;;;;;25.65;56.30;96459.86;608239;233;67308;-63
2022/11/20 08:31:38;;;;;;;;;;;;;;;25.66;56.75;96469.50;608231;233;65024;-64
2022/11/20 08:34:06;;;;;;;;;;;;;;;25.68;55.83;96456.53;608297;233;67337;-62
2022/11/20 08:36:34;;;;;;;;;;;;;;;25.69;56.16;96466.18;608391;233;67080;-62
2022/11/20 08:39:03;;;;;;;;;;;;;;;25.69;56.92;96466.18;608439;233;65164;-62
2022/11/20 08:41:32;;;;;;;;;;;;;;;25.71;59.56;96472.05;608404;233;67232;-62
2022/11/20 08:44:01;;;;;;;;;;;;;;;25.72;55.94;96472.83;608381;233;67008;-62
2022/11/20 08:46:30;;;;;;;;;;;;;;;25.74;56.96;96470.63;608372;233;65079;-62
2022/11/20 08:48:58;;;;;;;;;;;;;;;25.75;57.41;96456.05;608394;233;64596;-62
2022/11/20 08:51:25;;;;;;;;;;;;;;;25.75;55.94;96448.77;608365;233;67032;-62
2022/11/20 08:53:53;;;;;;;;;;;;;;;25.76;55.90;96453.06;608393;233;62927;-62
2022/11/20 08:56:22;;;;;;;;;;;;;;;25.79;59.81;96470.48;608380;233;65292;-62
2022/11/20 08:58:56;;;;;;;;;;;;;;;25.79;58.16;96465.09;608365;233;67029;-62
2022/11/20 09:01:21;;;;;;;;;;;;;;;25.79;57.57;96449.73;608163;233;65132;-62
2022/11/20 09:03:48;;;;;;;;;;;;;;;25.80;57.56;96467.45;608358;233;67301;-62
2022/11/20 09:06:16;;;;;;;;;;;;;;;25.82;57.29;96438.33;608432;233;66992;-62
2022/11/20 09:08:43;;;;;;;;;;;;;;;25.82;56.93;96442.93;608383;233;65020;-62
2022/11/20 09:11:11;;;;;;;;;;;;;;;25.84;57.49;96430.77;608393;233;67212;-62
2022/11/20 09:13:38;;;;;;;;;;;;;;;25.86;58.16;96439.33;608349;233;67203;-62
2022/11/20 09:16:08;;;;;;;;;;;;;;;25.86;58.09;96436.64;608376;233;65119;-62
2022/11/20 09:18:37;;;;;;;;;;;;;;;25.88;56.86;96439.00;608379;233;67311;-62
2022/11/20 09:21:06;;;;;;;;;;;;;;;25.88;57.41;96426.32;608417;233;65147;-62
2022/11/20 09:23:34;;;;;;;;;;;;;;;25.89;59.12;96435.19;608365;233;65550;-62
2022/11/20 09:26:03;;;;;;;;;;;;;;;25.89;56.16;96419.84;608346;233;64995;-62
2022/11/20 09:28:31;;;;;;;;;;;;;;;25.90;57.00;96410.66;608362;233;65109;-62
2022/11/20 09:30:58;;;;;;;;;;;;;;;25.93;58.91;96424.59;608364;233;65092;-62
2022/11/20 09:33:26;;;;;;;;;;;;;;;25.92;57.51;96407.66;608338;233;67312;-63
2022/11/20 09:35:54;;;;;;;;;;;;;;;25.94;57.84;96410.02;608336;233;66809;-64
2022/11/20 09:38:21;;;;;;;;;;;;;;;25.93;56.37;96400.37;608367;233;65052;-65
2022/11/20 09:41:02;;;;;;;;;;;;;;;25.94;56.76;96407.32;608139;233;67209;-65
2022/11/20 09:43:47;;;;;;;;;;;;;;;25.94;56.92;96410.80;607917;233;65378;-65
2022/11/20 09:46:34;;;;;;;;;;;;;;;25.95;56.76;96417.78;607281;233;64059;-65
2022/11/20 09:49:22;;;;;;;;;;;;;;;25.95;54.69;96406.23;607813;233;67311;-65
2022/11/20 09:51:54;;;;;;;;;;;;;;;25.96;55.19;96413.19;608175;233;65086;-65
2022/11/20 09:54:23;;;;;;;;;;;;;;;25.95;57.00;96409.71;608244;233;62878;-65
2022/11/20 09:56:52;;;;;;;;;;;;;;;25.95;56.25;96401.63;608336;233;65095;-65
2022/11/20 09:59:21;;;;;;;;;;;;;;;25.96;57.93;96402.42;608282;232;64790;-65
2022/11/20 10:01:49;;;;;;;;;;;;;;;25.96;57.87;96391.66;607125;233;62906;-65
2022/11/20 10:04:18;;;;;;;;;;;;;;;25.96;55.61;96400.52;608422;233;64725;-64
2022/11/20 10:06:47;;;;;;;;;;;;;;;25.96;56.54;96403.20;608407;233;65061;-64
2022/11/20 10:09:16;;;;;;;;;;;;;;;25.97;56.03;96403.99;608017;233;65027;-64
2022/11/20 10:12:01;;;;;;;;;;;;;;;25.98;56.17;96386.75;608007;233;67407;-64
2022/11/20 10:14:37;;;;;;;;;;;;;;;25.98;56.82;96382.15;608355;233;66880;-64
2022/11/20 10:17:05;;;;;;;;;;;;;;;25.99;57.98;96380.24;608350;233;65211;-65
2022/11/20 10:19:37;;;;;;;;;;;;;;;25.98;57.10;96373.28;607988;233;67214;-64
2022/11/20 10:22:07;;;;;;;;;;;;;;;25.98;55.99;96386.75;608052;233;66870;-64
2022/11/20 10:24:39;;;;;;;;;;;;;;;25.99;55.82;96380.24;606453;233;65112;-60
2022/11/20 10:27:17;;;;;;;;;;;;;;;25.99;55.56;96372.16;608388;233;65076;-63
2022/11/20 10:29:46;;;;;;;;;;;;;;;25.99;56.30;96372.16;608089;233;67287;-62
2022/11/20 10:32:18;;;;;;;;;;;;;;;25.98;56.72;96373.28;608288;233;65051;-63
2022/11/20 10:35:02;;;;;;;;;;;;;;;25.98;57.68;96378.67;608275;233;67240;-63
2022/11/20 10:37:31;;;;;;;;;;;;;;;25.98;56.17;96389.44;608310;233;66981;-63
2022/11/20 10:40:03;;;;;;;;;;;;;;;25.97;56.50;96382.45;608123;233;65063;-63
2022/11/20 10:42:42;;;;;;;;;;;;;;;25.98;56.96;96382.15;607234;233;67250;-63
2022/11/20 10:45:13;;;;;;;;;;;;;;;25.97;57.28;96382.45;608163;233;65843;-63
2022/11/20 10:47:41;;;;;;;;;;;;;;;25.96;56.27;96370.90;608232;233;65146;-63
2022/11/20 10:50:10;;;;;;;;;;;;;;;25.97;55.66;96366.30;608287;233;67035;-63
2022/11/20 10:52:45;;;;;;;;;;;;;;;25.97;55.76;96360.91;608394;233;66769;-63
2022/11/20 10:55:14;;;;;;;;;;;;;;;25.97;58.04;96371.69;607833;233;63006;-62
2022/11/20 10:57:43;;;;;;;;;;;;;;;25.96;55.30;96364.73;607943;233;64886;-63
2022/11/20 11:00:12;;;;;;;;;;;;;;;25.97;56.70;96367.09;608333;233;67152;-63
2022/11/20 11:02:46;;;;;;;;;;;;;;;25.97;57.14;96366.30;608370;233;64834;-63
2022/11/20 11:05:15;;;;;;;;;;;;;;;25.97;57.08;96371.69;608380;233;66919;-63
2022/11/20 11:07:45;;;;;;;;;;;;;;;25.96;56.76;96370.11;608292;233;67081;-63
2022/11/20 11:10:14;;;;;;;;;;;;;;;25.96;56.91;96387.05;608320;233;62976;-63
2022/11/20 11:12:43;;;;;;;;;;;;;;;25.97;56.88;96377.07;607457;233;67287;-63
2022/11/20 11:15:27;;;;;;;;;;;;;;;25.97;56.32;96366.30;608324;233;65784;-63
2022/11/20 11:17:55;;;;;;;;;;;;;;;25.97;53.99;96371.69;607377;233;62896;-63
2022/11/20 11:20:23;;;;;;;;;;;;;;;25.97;55.49;96380.55;608365;233;64691;-63
2022/11/20 11:22:52;;;;;;;;;;;;;;;25.97;56.36;96388.63;608331;233;67044;-63
2022/11/20 11:25:33;;;;;;;;;;;;;;;25.98;58.57;96394.83;608281;233;66099;-63
2022/11/20 11:28:01;;;;;;;;;;;;;;;25.99;56.98;96399.09;608347;233;65149;-63
2022/11/20 11:30:30;;;;;;;;;;;;;;;25.98;59.68;96400.99;608377;233;64791;-63
2022/11/20 11:33:06;;;;;;;;;;;;;;;25.98;57.33;96402.90;608292;233;65064;-63
2022/11/20 11:35:33;;;;;;;;;;;;;;;25.98;58.24;96400.99;608378;233;65037;-63
2022/11/20 11:38:08;;;;;;;;;;;;;;;25.99;58.64;96396.39;608359;233;66958;-63
2022/11/20 11:40:37;;;;;;;;;;;;;;;25.98;58.56;96394.83;608279;233;62968;-63
2022/11/20 11:45:04;;;;;;;;;;;;;;;25.98;55.55;96398.30;608400;233;66735;-63
2022/11/20 11:45:36;;;;;;;;;;;;;;;25.98;57.37;96394.83;607389;233;64868;-63
2022/11/20 11:48:04;;;;;;;;;;;;;;;25.99;57.77;96407.16;608374;233;63108;-63
2022/11/20 11:50:32;;;;;;;;;;;;;;;25.99;54.73;96402.56;608300;233;66917;-63
2022/11/20 11:53:04;;;;;;;;;;;;;;;26.00;57.33;96404.16;608370;233;66753;-63
2022/11/20 11:55:42;;;;;;;;;;;;;;;26.00;57.19;96397.97;608241;233;65091;-63
2022/11/20 11:58:14;;;;;;;;;;;;;;;25.99;57.12;96391.02;608305;232;66719;-62
2022/11/20 12:00:44;;;;;;;;;;;;;;;26.00;58.16;96389.89;608438;233;66788;-62
2022/11/20 12:03:25;;;;;;;;;;;;;;;25.99;54.65;96391.02;608205;233;63018;-62
2022/11/20 12:06:00;;;;;;;;;;;;;;;26.00;56.21;96393.40;608312;233;66755;-62
2022/11/20 12:08:29;;;;;;;;;;;;;;;26.00;57.10;96387.20;608387;233;66627;-63
2022/11/20 12:11:07;;;;;;;;;;;;;;;25.99;56.30;96401.78;608297;233;63101;-62
2022/11/20 12:13:36;;;;;;;;;;;;;;;26.00;58.24;96389.89;608090;233;67237;-62
2022/11/20 12:16:05;;;;;;;;;;;;;;;26.00;57.10;96384.50;608371;233;67334;-67
2022/11/20 12:18:32;;;;;;;;;;;;;;;26.00;56.49;96392.58;608380;233;65064;-67
2022/11/20 12:21:04;;;;;;;;;;;;;;;25.99;57.65;96391.02;608288;233;67213;-67
2022/11/20 12:23:36;;;;;;;;;;;;;;;26.00;55.87;96376.42;608232;233;66966;-67
2022/11/20 12:26:05;;;;;;;;;;;;;;;26.00;56.41;96376.42;599945;233;65089;-68
2022/11/20 12:28:37;;;;;;;;;;;;;;;25.99;58.14;96372.95;608264;233;67241;-68
2022/11/20 12:31:23;;;;;;;;;;;;;;;25.99;55.99;96381.03;608261;233;64910;-68
2022/11/20 12:33:58;;;;;;;;;;;;;;;25.99;56.59;96393.70;608367;233;63106;-68
2022/11/20 12:36:29;;;;;;;;;;;;;;;26.00;57.63;96379.13;608211;233;64637;-68
2022/11/20 12:39:17;;;;;;;;;;;;;;;26.00;56.24;96387.20;608255;233;67075;-68
2022/11/20 12:47:41;;;;;;;;;;;;;;;25.99;57.18;96359.48;608265;233;65119;-68
2022/11/20 12:50:18;;;;;;;;;;;;;;;25.98;57.52;96375.98;607608;233;65297;-68
2022/11/20 12:52:48;;;;;;;;;;;;;;;25.98;57.85;96373.28;608072;233;67204;-68
2022/11/20 12:55:34;;;;;;;;;;;;;;;25.99;55.50;96378.34;608263;233;65017;-68
2022/11/20 12:58:17;;;;;;;;;;;;;;;25.99;57.87;96382.94;608219;233;62944;-68
2022/11/20 13:00:56;;;;;;;;;;;;;;;25.99;57.74;96386.41;610271;232;68081;-68
2022/11/20 13:03:28;;;;;;;;;;;;;;;25.99;59.26;96380.24;610438;232;66911;-69
2022/11/20 13:06:15;;;;;;;;;;;;;;;25.98;57.68;96382.15;610328;232;62936;-69
2022/11/20 13:08:45;;;;;;;;;;;;;;;25.98;58.95;96381.36;610595;232;64785;-69
2022/11/20 13:11:26;;;;;;;;;;;;;;;25.98;57.79;96395.61;610503;232;64820;-69